Seeley, CA

4:37 AM PDT en Septiembre 02, 2014 (GMT -0700)
Imperial County | Change Station
CLOSE
Current Station
Aeropuerto
Location: Imperial,
Altura: -56 ft
Estaciones meteorológicas cercanas

Alt -56 ft 32.83 °N, 115.58 °W | Updated 44 minutes ago

Clear
Despejado
80 ° F
Sensación térmica 80 ° F
N
0
Viento Variable Viento desde Norte

Hoy
Alta -- | Baja -- ° F
--% Posibilidad de precipitaciones
Ayer
Alta -- | Baja -- ° F
Precip. -- pul
6:18 AM 7:06 PM
Creciente, 50% visible
Presión 29.69 pul
Visibilidad 10.0 Millas
Nubes Despejado
Punto de rocío 47 ° F
Humedad 31%
Precipitaciones 0.00 pul
Espesor de la nieve No disponible.
UV 0 de una escala de 12
Polen 8.00 de una escala de 12
Ozono Buena
PM2.5 Buena
Flu Activity No disponible.
METAR KIPL 021053Z AUTO 00000KT 10SM CLR 27/08 A2969 RMK AO2 SLP053 T02670083

More Conditions Fewer Conditions

Presión 29.69 pul
Visibilidad 10.0 Millas
Nubes Despejado
Punto de rocío 47 ° F
Humedad 31%
Precipitaciones 0.00 pul
Espesor de la nieve No disponible.
UV 0 de una escala de 12
Polen 8.00 de una escala de 12
Ozono Buena
PM2.5 Buena
Flu Activity No disponible.
METAR KIPL 021053Z AUTO 00000KT 10SM CLR 27/08 A2969 RMK AO2 SLP053 T02670083

More Conditions Fewer Conditions

10-Day Weather Forecast

Almanac

Astronomía

Sep. 02, 2014 Salida Puesta
Hora real 6:18 AM PDT 7:06 PM PDT
Crepúsculo civil 5:53 AM PDT 7:31 PM PDT
Crepúsculo náutico 5:23 AM PDT 8:00 PM PDT
Crepúsculo astronómico 4:52 AM PDT 8:30 PM PDT
Luna 1:43 PM PDT Sin puesta de luna
Horas de luz 13h 38m
Horas de luz
12h 47m
Tomorrow will be 1m 55s shorter.
Creciente, 50% of the Moon is Illuminated
Hoy
Creciente
Sep 8
Luna llena
Sep 15
Cuarto menguante
Sep 24
Nueva
Oct 1
Cuarto creciente

Extremos de hoy

Máximos del estado Bajos del estado

Community

WunderPhotos

Upload Photos

1,749,621 ¡fotos cargadas!

WunderBlogs® & News

By Dr. Jeff Masters
Director of Meteorology, Weather Underground
By Kari Strenfel
Meteorologist, Weather Underground
By Christopher C. Burt
Weather Historian, Weather Underground
September 2, 2014
September 2, 2014
September 2, 2014

Nearby

Calidad del aire

  Calidad del aire Índice AQ Contaminante
Ayer Buena
PM2.5
Ayer Buena
OZONE
Real Buena
PM2.5
Real Buena
OZONE
Martes Moderada
OZONE
Miércoles Moderada
OZONE
Jueves Buena
OZONE
Viernes Buena
OZONE
Sábado Buena
OZONE

Grosos de nieve

Estación Profundido Altura
Leavitt Lake 0 in 9400 ft
Leavitt Meadows 1 in 7200 ft
Summit Meadow 1 in 9122 ft
Monitor Pass 0 in 8350 ft
Blue Lakes 0 in 8000 ft

Actividad de terremotos

Ciudad Distance Mag. Tiempo y dato
Holtville, California 15 Millas 2.5 5:43 PM PDT
2014-09-01
Holtville, California 17 Millas 2.5 5:26 PM PDT
2014-09-01
Magnitud mínima muestra es 2,5.

Temperaturas de aguas costeras

Lugar Temperatura
Sin partes meteorológicos de las estaciones

Estaciones meteorológicas cercanas